Massena, New York
Current Conditions -  °F | °C
As of 11:26 AM on Tuesday 21 Oct 2014 (Local Time) from KMSS Reporting Station
Overcast Overcast  
Wind Chill: 37°   Ceiling: 1000
Heat Index: 44°   Visibility: 9mi
Dew Point: 41°   Wind: 14mph
Humidity: 89%   Direction: 40°NE
Pressure: 29.99"   Gusts: NA
Location:  44.93°N, 74.89°W
Report Text: KMSS 211526Z AUTO 04012KT 9SM OVC010 07/05 A2999 RMK AO2 T00670050
Loading
Personal Weather Stations






























Interactive Weather Map New forecast layout! Learn more

10-Day Weather Forecast

Advertisements
Track Severe Weather on mobile